Time;durP1;ratioP1;P1;durP2;ratioP2;P2;SDS_P1;SDS_P2;PMS_P1;PMS_P2;Temp;Humidity;BMP_temperature;BMP_pressure;BME280_temperature;BME280_humidity;BME280_pressure;Samples;Min_cycle;Max_cycle;Signal;HPM_P1;HPM_P2
2022/07/12 00:00:06;;;;;;;2.60;1.27;;;16.90;99.90;;;;;;5094538;28;20448;-80
2022/07/12 00:02:33;;;;;;;2.80;1.33;;;16.80;99.90;;;;;;5093364;28;20489;-81
2022/07/12 00:05:00;;;;;;;2.10;1.57;;;16.80;99.90;;;;;;5095088;28;20454;-81
2022/07/12 00:07:27;;;;;;;2.27;1.40;;;16.80;99.90;;;;;;5095305;28;20485;-81
2022/07/12 00:09:54;;;;;;;2.27;1.23;;;16.70;99.90;;;;;;5095017;28;20460;-80
2022/07/12 00:12:20;;;;;;;3.20;1.47;;;16.70;99.90;;;;;;5094870;28;20490;-80
2022/07/12 00:14:49;;;;;;;2.80;1.70;;;16.70;99.90;;;;;;5094422;28;20564;-81
2022/07/12 00:17:16;;;;;;;2.50;1.60;;;16.70;99.90;;;;;;5093736;28;20493;-81
2022/07/12 00:19:42;;;;;;;2.80;1.27;;;16.70;99.90;;;;;;5093979;28;20480;-81
2022/07/12 00:22:09;;;;;;;2.03;1.40;;;16.70;99.90;;;;;;5094082;28;20463;-81
2022/07/12 00:24:36;;;;;;;2.10;1.40;;;16.60;99.90;;;;;;5099750;28;20532;-81
2022/07/12 00:27:03;;;;;;;3.60;1.40;;;16.60;99.90;;;;;;5097059;28;20484;-81
2022/07/12 00:29:30;;;;;;;2.20;1.10;;;16.50;99.90;;;;;;5094702;28;20547;-81
2022/07/12 00:31:58;;;;;;;4.80;2.23;;;16.50;99.90;;;;;;5092716;28;20972;-80
2022/07/12 00:34:25;;;;;;;2.00;1.40;;;16.50;99.90;;;;;;5094028;28;20469;-82
2022/07/12 00:36:52;;;;;;;2.17;1.23;;;16.50;99.90;;;;;;5094104;28;20542;-81
2022/07/12 00:39:19;;;;;;;2.50;1.27;;;16.50;99.90;;;;;;5094162;28;20879;-80
2022/07/12 00:41:49;;;;;;;2.60;1.50;;;16.50;99.90;;;;;;5089930;28;20496;-81
2022/07/12 00:44:16;;;;;;;2.57;1.63;;;16.50;99.90;;;;;;5093381;28;20901;-81
2022/07/12 00:46:44;;;;;;;2.77;1.60;;;16.40;99.90;;;;;;5083790;28;20542;-82
2022/07/12 00:49:15;;;;;;;2.20;1.50;;;16.40;99.90;;;;;;5094241;28;20457;-81
2022/07/12 00:51:43;;;;;;;2.67;1.47;;;16.40;99.90;;;;;;5094437;28;20461;-81
2022/07/12 00:54:10;;;;;;;2.57;1.50;;;16.40;99.90;;;;;;5093853;28;20474;-80
2022/07/12 00:56:37;;;;;;;3.00;1.50;;;16.40;99.90;;;;;;5094051;28;20624;-81
2022/07/12 00:59:04;;;;;;;2.93;1.40;;;16.30;99.90;;;;;;5094290;28;20548;-80
2022/07/12 01:01:31;;;;;;;2.53;1.50;;;16.30;99.90;;;;;;5091963;28;20831;-81
2022/07/12 01:03:58;;;;;;;4.80;1.50;;;16.30;99.90;;;;;;5093524;28;20476;-80
2022/07/12 01:06:27;;;;;;;2.70;2.10;;;16.30;99.90;;;;;;5093762;28;20476;-80
2022/07/12 01:08:54;;;;;;;1.90;1.10;;;16.20;99.90;;;;;;5093917;28;20448;-82
2022/07/12 01:11:21;;;;;;;3.23;1.67;;;16.20;99.90;;;;;;5093816;28;20541;-82
2022/07/12 01:13:50;;;;;;;2.40;1.57;;;16.20;99.90;;;;;;5093157;28;20559;-81
2022/07/12 01:16:19;;;;;;;6.47;1.40;;;16.20;99.90;;;;;;5090145;28;20538;-81
2022/07/12 01:18:45;;;;;;;3.23;1.80;;;16.20;99.90;;;;;;5087608;28;20825;-81
2022/07/12 01:21:17;;;;;;;2.67;1.50;;;16.20;99.90;;;;;;5093087;28;20476;-80
2022/07/12 01:23:46;;;;;;;3.57;1.90;;;16.10;99.90;;;;;;5092785;28;20473;-81
2022/07/12 01:26:13;;;;;;;2.83;1.50;;;16.10;99.90;;;;;;5094159;28;20457;-82
2022/07/12 01:28:40;;;;;;;2.83;1.60;;;16.10;99.90;;;;;;5097418;28;20529;-82
2022/07/12 01:31:07;;;;;;;2.73;1.47;;;16.10;99.90;;;;;;5091499;28;20548;-81
2022/07/12 01:33:34;;;;;;;4.40;1.50;;;16.10;99.90;;;;;;5091890;28;20561;-80
2022/07/12 01:36:02;;;;;;;3.00;1.50;;;16.00;99.90;;;;;;5093818;28;20460;-81
2022/07/12 01:38:28;;;;;;;2.20;1.40;;;16.00;99.90;;;;;;5093522;28;20509;-81
2022/07/12 01:40:57;;;;;;;2.40;1.50;;;16.00;99.90;;;;;;5080458;28;20537;-80
2022/07/12 01:43:24;;;;;;;2.77;1.80;;;16.00;99.90;;;;;;5090036;28;20555;-80
2022/07/12 01:45:51;;;;;;;2.57;1.57;;;16.00;99.90;;;;;;5093623;28;20968;-80
2022/07/12 01:48:18;;;;;;;3.30;1.70;;;16.00;99.90;;;;;;5081923;28;20889;-79
2022/07/12 01:50:45;;;;;;;3.10;1.90;;;16.00;99.90;;;;;;5073629;28;20520;-80
2022/07/12 01:53:13;;;;;;;3.10;1.80;;;16.00;99.90;;;;;;5088286;28;20946;-80
2022/07/12 01:55:41;;;;;;;2.23;1.47;;;16.00;99.90;;;;;;5092890;28;20462;-80
2022/07/12 01:58:10;;;;;;;3.23;2.00;;;15.90;99.90;;;;;;5092772;28;20563;-80
2022/07/12 02:00:36;;;;;;;2.20;1.50;;;15.90;99.90;;;;;;5092467;28;20461;-80
2022/07/12 02:03:03;;;;;;;3.10;1.60;;;15.90;99.90;;;;;;5091080;28;20532;-78
2022/07/12 02:05:30;;;;;;;2.70;1.50;;;15.90;99.90;;;;;;5091800;28;21031;-80
2022/07/12 02:07:58;;;;;;;5.70;2.20;;;15.80;99.90;;;;;;5092903;28;20885;-80
2022/07/12 02:10:25;;;;;;;3.07;1.60;;;15.80;99.90;;;;;;5092761;28;20454;-81
2022/07/12 02:12:52;;;;;;;3.53;1.67;;;15.80;99.90;;;;;;5092043;28;21054;-78
2022/07/12 02:15:20;;;;;;;3.53;2.10;;;15.80;99.90;;;;;;5083266;28;20538;-80
2022/07/12 02:17:47;;;;;;;3.40;2.03;;;15.70;99.90;;;;;;5081312;28;20516;-80
2022/07/12 02:20:14;;;;;;;3.53;2.33;;;15.70;99.90;;;;;;5092746;28;20555;-81
2022/07/12 02:22:41;;;;;;;2.90;1.80;;;15.70;99.90;;;;;;5093261;28;20557;-81
2022/07/12 02:25:08;;;;;;;3.77;1.70;;;15.70;99.90;;;;;;5081161;28;20487;-80
2022/07/12 02:27:35;;;;;;;2.77;1.50;;;15.70;99.90;;;;;;5093778;28;20532;-81
2022/07/12 02:30:02;;;;;;;4.13;1.83;;;15.70;99.90;;;;;;5093573;28;20481;-81
2022/07/12 02:32:30;;;;;;;2.60;1.40;;;15.60;99.90;;;;;;5093894;28;20483;-81
2022/07/12 02:34:57;;;;;;;2.83;1.83;;;15.60;99.90;;;;;;5092198;28;20452;-83
2022/07/12 02:37:24;;;;;;;2.73;1.97;;;15.60;99.90;;;;;;5093555;28;20494;-81
2022/07/12 02:39:50;;;;;;;3.30;1.67;;;15.60;99.90;;;;;;5094928;28;20457;-81
2022/07/12 02:42:17;;;;;;;2.70;2.03;;;15.70;99.90;;;;;;5095088;28;20539;-80
2022/07/12 02:44:44;;;;;;;2.50;1.73;;;15.60;99.90;;;;;;5098133;28;20537;-80
2022/07/12 02:47:11;;;;;;;2.50;1.70;;;15.60;99.90;;;;;;5099658;28;20457;-79
2022/07/12 02:49:39;;;;;;;2.73;1.73;;;15.60;99.90;;;;;;5091899;28;20471;-79
2022/07/12 02:52:07;;;;;;;2.50;1.70;;;15.60;99.90;;;;;;5095543;28;20494;-80
2022/07/12 02:54:33;;;;;;;4.30;2.17;;;15.60;99.90;;;;;;5098501;28;20565;-81
2022/07/12 02:57:00;;;;;;;2.80;2.00;;;15.60;99.90;;;;;;5104063;28;20481;-82
2022/07/12 02:59:27;;;;;;;2.40;1.70;;;15.60;99.90;;;;;;5109478;28;20477;-79
2022/07/12 03:01:54;;;;;;;2.80;1.80;;;15.60;99.90;;;;;;5109844;28;20449;-80
2022/07/12 03:04:21;;;;;;;3.07;2.07;;;15.60;99.90;;;;;;5109110;28;20488;-81
2022/07/12 03:06:49;;;;;;;2.93;2.03;;;15.50;99.90;;;;;;5106901;28;20483;-80
2022/07/12 03:09:16;;;;;;;2.87;2.03;;;15.50;99.90;;;;;;5109436;28;20509;-80
2022/07/12 03:11:42;;;;;;;3.83;2.10;;;15.50;99.90;;;;;;5108523;28;20486;-80
2022/07/12 03:14:09;;;;;;;3.00;2.20;;;15.50;99.90;;;;;;5108505;28;20469;-81
2022/07/12 03:16:36;;;;;;;3.40;2.23;;;15.50;99.90;;;;;;5114546;28;20444;-81
2022/07/12 03:19:03;;;;;;;5.50;2.80;;;15.50;99.90;;;;;;5117543;28;20516;-82
2022/07/12 03:21:30;;;;;;;3.70;2.23;;;15.40;99.90;;;;;;5114008;28;20488;-80
2022/07/12 03:23:58;;;;;;;3.23;2.00;;;15.50;99.90;;;;;;5106045;28;20472;-78
2022/07/12 03:26:26;;;;;;;2.83;2.23;;;15.40;99.90;;;;;;5102919;28;20452;-78
2022/07/12 03:28:53;;;;;;;4.03;2.50;;;15.40;99.90;;;;;;5103576;28;20449;-78
2022/07/12 03:31:19;;;;;;;3.10;2.10;;;15.40;99.90;;;;;;5093003;28;20549;-80
2022/07/12 03:33:46;;;;;;;3.60;2.53;;;15.40;99.90;;;;;;5100820;28;20472;-79
2022/07/12 03:36:13;;;;;;;2.87;2.40;;;15.30;99.90;;;;;;5100978;28;20486;-78
2022/07/12 03:38:40;;;;;;;2.50;1.80;;;15.30;99.90;;;;;;5093942;28;20520;-78
2022/07/12 03:41:08;;;;;;;2.73;1.87;;;15.30;99.90;;;;;;5105086;28;20457;-78
2022/07/12 03:43:35;;;;;;;5.67;2.57;;;15.30;99.90;;;;;;5103754;28;21115;-79
2022/07/12 03:46:02;;;;;;;3.07;1.87;;;15.30;99.90;;;;;;5104363;28;20449;-80
2022/07/12 03:48:29;;;;;;;3.03;2.10;;;15.30;99.90;;;;;;5106514;28;20484;-81
2022/07/12 03:50:56;;;;;;;2.80;2.03;;;15.30;99.90;;;;;;5104677;28;20473;-78
2022/07/12 03:53:23;;;;;;;6.23;2.50;;;15.30;99.90;;;;;;5097664;28;20484;-80
2022/07/12 03:55:50;;;;;;;4.77;2.03;;;15.30;99.90;;;;;;5105690;28;20450;-78
2022/07/12 03:58:18;;;;;;;5.20;2.30;;;15.30;99.90;;;;;;5105271;28;20497;-80
2022/07/12 04:00:45;;;;;;;2.73;2.20;;;15.30;99.90;;;;;;5105719;28;20485;-79
2022/07/12 04:03:12;;;;;;;3.70;2.60;;;15.30;99.90;;;;;;5105306;28;20512;-79
2022/07/12 04:05:39;;;;;;;4.23;2.67;;;15.40;99.90;;;;;;5106323;28;20479;-81
2022/07/12 04:08:06;;;;;;;3.27;2.40;;;15.40;99.90;;;;;;5102575;28;20455;-80
2022/07/12 04:10:33;;;;;;;3.10;2.07;;;15.40;99.90;;;;;;5107190;28;20449;-80
2022/07/12 04:13:06;;;;;;;3.53;2.27;;;15.40;99.90;;;;;;5105609;28;20504;-79
2022/07/12 04:15:35;;;;;;;2.80;2.00;;;15.40;99.90;;;;;;5105441;28;20467;-80
2022/07/12 04:18:02;;;;;;;2.63;2.43;;;15.50;99.90;;;;;;5105517;28;20479;-79
2022/07/12 04:20:29;;;;;;;2.67;1.80;;;15.50;99.90;;;;;;5105977;28;20465;-78
2022/07/12 04:22:56;;;;;;;4.70;2.17;;;15.50;99.90;;;;;;5105926;28;20473;-79
2022/07/12 04:25:25;;;;;;;4.93;1.80;;;15.60;99.90;;;;;;5101895;28;20480;-78
2022/07/12 04:27:55;;;;;;;3.10;2.13;;;15.60;99.90;;;;;;5106950;28;20447;-77
2022/07/12 04:30:22;;;;;;;3.30;1.97;;;15.60;99.90;;;;;;5106818;28;21007;-80
2022/07/12 04:32:50;;;;;;;2.77;2.10;;;15.60;99.90;;;;;;5104906;28;21802;-80
2022/07/12 04:35:17;;;;;;;3.13;2.00;;;15.70;99.90;;;;;;5105894;28;20446;-79
2022/07/12 04:37:44;;;;;;;2.60;1.83;;;15.70;99.90;;;;;;5104997;28;20569;-81
2022/07/12 04:40:12;;;;;;;3.43;2.10;;;15.80;99.90;;;;;;5086048;28;20456;-79
2022/07/12 04:42:39;;;;;;;3.40;2.37;;;15.80;99.90;;;;;;5084675;28;20518;-79
2022/07/12 04:45:07;;;;;;;4.70;2.60;;;15.90;99.90;;;;;;5103966;28;20456;-78
2022/07/12 04:47:36;;;;;;;4.77;2.50;;;15.90;99.90;;;;;;5104599;28;20458;-79
2022/07/12 04:50:06;;;;;;;3.37;2.90;;;16.00;99.90;;;;;;5102951;28;20551;-79
2022/07/12 04:52:34;;;;;;;4.27;2.57;;;16.00;99.90;;;;;;5104650;28;20901;-80
2022/07/12 04:55:01;;;;;;;2.90;2.23;;;16.10;99.90;;;;;;5100763;28;20456;-81
2022/07/12 04:57:38;;;;;;;2.93;2.33;;;16.10;99.90;;;;;;5085399;28;20481;-80
2022/07/12 05:00:06;;;;;;;3.60;2.87;;;16.20;99.90;;;;;;5084992;28;20521;-82
2022/07/12 05:02:37;;;;;;;3.10;2.00;;;16.30;99.90;;;;;;5085295;28;20470;-79
2022/07/12 05:05:07;;;;;;;4.40;2.17;;;16.40;99.90;;;;;;5104133;28;20462;-79
2022/07/12 05:07:35;;;;;;;3.13;2.67;;;16.40;99.90;;;;;;5105893;28;20458;-79
2022/07/12 05:10:02;;;;;;;3.07;2.33;;;16.50;99.90;;;;;;5097093;28;20461;-81
2022/07/12 05:12:29;;;;;;;3.30;2.63;;;16.50;99.90;;;;;;5086763;28;20473;-80
2022/07/12 05:14:56;;;;;;;4.20;2.97;;;16.60;99.90;;;;;;5105152;28;20468;-82
2022/07/12 05:17:23;;;;;;;3.30;2.23;;;16.60;99.90;;;;;;5107891;28;20480;-81
2022/07/12 05:19:50;;;;;;;4.00;2.90;;;16.70;99.90;;;;;;5108372;28;20504;-80
2022/07/12 05:22:18;;;;;;;3.40;2.60;;;16.70;99.90;;;;;;5107402;28;20456;-82
2022/07/12 05:24:45;;;;;;;3.10;2.60;;;16.80;99.90;;;;;;5106763;28;20454;-83
2022/07/12 05:27:11;;;;;;;4.20;2.93;;;16.90;99.90;;;;;;5099305;28;20563;-78
2022/07/12 05:29:38;;;;;;;4.13;3.00;;;16.90;99.90;;;;;;5108262;28;20478;-82
2022/07/12 05:32:06;;;;;;;4.30;3.10;;;17.00;99.90;;;;;;5107650;28;20510;-81
2022/07/12 05:34:33;;;;;;;4.50;2.63;;;17.00;99.90;;;;;;5106813;28;20469;-82
2022/07/12 05:36:59;;;;;;;5.63;3.30;;;17.10;99.90;;;;;;5108282;28;20552;-81
2022/07/12 05:39:28;;;;;;;3.90;2.63;;;17.20;99.90;;;;;;5109163;28;20557;-82
2022/07/12 05:41:55;;;;;;;4.17;3.03;;;17.20;99.90;;;;;;5098051;28;20483;-80
2022/07/12 05:44:23;;;;;;;3.93;3.00;;;17.30;99.90;;;;;;5102033;28;20509;-80
2022/07/12 05:46:50;;;;;;;4.50;3.07;;;17.40;99.90;;;;;;5103420;28;20475;-79
2022/07/12 05:49:17;;;;;;;4.10;2.50;;;17.40;99.90;;;;;;5105582;28;20465;-81
2022/07/12 05:54:30;;;;;;;4.93;4.43;;;17.60;99.90;;;;;;5097942;28;20467;-78
2022/07/12 05:56:56;;;;;;;4.53;3.40;;;17.60;99.90;;;;;;5090330;28;20464;-79
2022/07/12 05:59:23;;;;;;;4.57;3.17;;;17.70;99.90;;;;;;5094871;28;20924;-80
2022/07/12 06:01:50;;;;;;;7.43;2.87;;;17.80;99.90;;;;;;5089469;28;20462;-79
2022/07/12 06:04:17;;;;;;;3.03;2.50;;;17.90;99.90;;;;;;5114867;22;20556;-85
2022/07/12 06:06:44;;;;;;;3.40;2.70;;;18.00;99.90;;;;;;5037030;28;20523;-86
2022/07/12 06:09:16;;;;;;;3.93;3.00;;;18.10;99.90;;;;;;5045716;28;20457;-84
2022/07/12 06:11:45;;;;;;;3.93;3.00;;;18.20;99.90;;;;;;5044855;28;20920;-84
2022/07/12 06:14:14;;;;;;;3.53;3.00;;;18.30;99.90;;;;;;5047883;28;20502;-84
2022/07/12 06:16:43;;;;;;;3.20;2.33;;;18.30;99.90;;;;;;5044827;28;20548;-85
2022/07/12 06:19:10;;;;;;;4.20;2.70;;;18.50;99.90;;;;;;5043741;28;20520;-86
2022/07/12 06:21:42;;;;;;;3.20;2.40;;;18.60;99.90;;;;;;5047000;28;20565;-86
2022/07/12 06:24:09;;;;;;;4.03;2.73;;;18.70;99.90;;;;;;5052690;28;20512;-86
2022/07/12 06:26:36;;;;;;;4.83;3.27;;;18.70;99.90;;;;;;5053449;28;20518;-83
2022/07/12 06:29:04;;;;;;;3.23;2.67;;;18.80;99.90;;;;;;5049501;28;20483;-85
2022/07/12 06:31:31;;;;;;;4.20;2.70;;;18.90;99.90;;;;;;5049846;28;20502;-86
2022/07/12 06:33:58;;;;;;;3.83;1.90;;;19.00;99.90;;;;;;5055578;28;20497;-82
2022/07/12 06:36:25;;;;;;;3.80;2.30;;;19.10;99.90;;;;;;5051850;28;20550;-84
2022/07/12 06:38:51;;;;;;;2.57;2.07;;;19.10;99.90;;;;;;5054587;28;20486;-83
2022/07/12 06:41:18;;;;;;;2.60;2.00;;;19.20;99.90;;;;;;5048982;28;21001;-83
2022/07/12 06:43:45;;;;;;;2.30;1.83;;;19.20;99.90;;;;;;5047002;28;20212;-82
2022/07/12 06:46:13;;;;;;;3.27;2.00;;;19.40;99.90;;;;;;5047407;28;20971;-84
2022/07/12 06:48:45;;;;;;;3.47;1.90;;;19.50;99.90;;;;;;5044775;28;20459;-83
2022/07/12 06:51:12;;;;;;;3.13;2.07;;;19.60;99.90;;;;;;5045896;28;20480;-83
2022/07/12 06:53:51;;;;;;;;;;;;;;;;;;;;;
2022/07/12 06:56:18;;;;;;;3.50;2.00;;;19.70;99.90;;;;;;5041502;28;20563;-84
2022/07/12 06:58:47;;;;;;;5.23;2.90;;;19.80;99.90;;;;;;5036717;28;20603;-84
2022/07/12 07:01:16;;;;;;;3.27;2.30;;;19.90;99.90;;;;;;5041876;28;20457;-84
2022/07/12 07:03:42;;;;;;;3.53;1.90;;;20.00;99.90;;;;;;5044065;28;20484;-83
2022/07/12 07:06:09;;;;;;;4.73;2.93;;;20.10;99.90;;;;;;5041319;28;20625;-83
2022/07/12 07:08:36;;;;;;;3.33;2.60;;;20.10;99.90;;;;;;5042218;28;20456;-82
2022/07/12 07:11:03;;;;;;;4.57;2.63;;;20.20;99.90;;;;;;5040210;28;20462;-82
2022/07/12 07:13:30;;;;;;;4.80;3.17;;;20.30;99.90;;;;;;5039197;28;20480;-83
2022/07/12 07:16:00;;;;;;;4.93;3.13;;;20.40;99.90;;;;;;5059384;28;20484;-83
2022/07/12 07:18:28;;;;;;;4.30;2.70;;;20.40;99.90;;;;;;5047536;28;20484;-82
2022/07/12 07:20:55;;;;;;;3.80;2.57;;;20.50;99.90;;;;;;5036569;28;20445;-82
2022/07/12 07:23:22;;;;;;;3.43;2.70;;;20.60;99.90;;;;;;5035134;28;20437;-82
2022/07/12 07:25:49;;;;;;;3.90;2.33;;;20.70;99.90;;;;;;5040853;28;20555;-82
2022/07/12 07:28:15;;;;;;;4.10;2.60;;;20.80;99.90;;;;;;5040712;28;20484;-83
2022/07/12 07:30:53;;;;;;;3.30;2.00;;;20.80;99.90;;;;;;5039846;28;20488;-82
2022/07/12 07:33:21;;;;;;;4.10;2.83;;;21.00;99.90;;;;;;5039277;28;20882;-82
2022/07/12 07:35:50;;;;;;;4.50;3.53;;;21.10;99.90;;;;;;5038659;28;20536;-83
2022/07/12 07:38:17;;;;;;;4.50;2.90;;;21.10;99.90;;;;;;5050305;28;20462;-82
2022/07/12 07:40:44;;;;;;;3.93;2.77;;;21.20;99.90;;;;;;5031019;28;20688;-83
2022/07/12 07:43:11;;;;;;;2.93;1.80;;;21.30;99.90;;;;;;5040317;28;20455;-81
2022/07/12 07:45:38;;;;;;;3.00;2.10;;;21.40;99.90;;;;;;5060163;28;20478;-82
2022/07/12 07:48:06;;;;;;;2.93;2.30;;;21.60;99.90;;;;;;5049489;28;20448;-83
2022/07/12 07:50:33;;;;;;;2.43;1.80;;;21.70;99.90;;;;;;5039900;28;20437;-83
2022/07/12 07:53:01;;;;;;;3.83;2.27;;;21.80;99.90;;;;;;5039823;28;20496;-82
2022/07/12 07:55:28;;;;;;;3.53;2.37;;;21.90;99.90;;;;;;5040904;28;20485;-83
2022/07/12 07:57:54;;;;;;;2.70;1.57;;;22.00;99.90;;;;;;5045436;28;20484;-83
2022/07/12 08:00:22;;;;;;;4.10;2.17;;;22.00;99.90;;;;;;5043665;28;20534;-84
2022/07/12 08:02:48;;;;;;;4.03;1.63;;;22.10;99.90;;;;;;5050880;28;21000;-82
2022/07/12 08:05:17;;;;;;;2.57;1.70;;;22.20;99.90;;;;;;5045081;28;20518;-83
2022/07/12 08:07:44;;;;;;;3.70;1.80;;;22.20;99.90;;;;;;5059135;28;20931;-83
2022/07/12 08:10:12;;;;;;;3.13;1.50;;;22.30;99.90;;;;;;5044766;28;20480;-83
2022/07/12 08:12:39;;;;;;;3.33;1.50;;;22.50;99.90;;;;;;5037636;28;21036;-83
2022/07/12 08:15:07;;;;;;;2.67;1.60;;;22.60;99.90;;;;;;5039421;28;21035;-84
2022/07/12 08:17:34;;;;;;;3.80;1.80;;;22.70;99.90;;;;;;5040318;28;20520;-84
2022/07/12 08:20:01;;;;;;;3.00;1.40;;;22.90;99.90;;;;;;5039628;28;20480;-84
2022/07/12 08:22:28;;;;;;;2.43;1.23;;;23.00;99.90;;;;;;5042964;28;20445;-83
2022/07/12 08:24:54;;;;;;;2.63;1.67;;;23.10;99.90;;;;;;5039248;28;20552;-84
2022/07/12 08:27:23;;;;;;;3.10;1.87;;;23.30;99.90;;;;;;5040372;28;20524;-83
2022/07/12 08:29:51;;;;;;;2.43;1.30;;;23.50;99.90;;;;;;5039662;28;20449;-83
2022/07/12 08:32:17;;;;;;;3.90;1.70;;;23.60;99.90;;;;;;5040352;28;20444;-83
2022/07/12 08:34:44;;;;;;;3.30;1.90;;;23.80;99.90;;;;;;5039433;28;20468;-83
2022/07/12 08:37:11;;;;;;;4.33;1.60;;;24.00;99.90;;;;;;5039914;28;20448;-83
2022/07/12 08:39:38;;;;;;;2.97;2.10;;;24.10;99.90;;;;;;5039586;28;20587;-82
2022/07/12 08:42:08;;;;;;;2.90;1.90;;;24.20;99.90;;;;;;5039285;28;20453;-83
2022/07/12 08:44:36;;;;;;;3.40;2.10;;;24.30;99.90;;;;;;5038934;28;20469;-82
2022/07/12 08:47:03;;;;;;;3.00;1.97;;;24.20;99.90;;;;;;5038060;28;20539;-82
2022/07/12 08:49:31;;;;;;;4.43;1.80;;;24.30;99.90;;;;;;5038207;28;20477;-83
2022/07/12 08:51:58;;;;;;;2.47;1.50;;;24.50;99.90;;;;;;5039550;28;20448;-82
2022/07/12 08:54:25;;;;;;;2.73;1.40;;;24.70;99.90;;;;;;5038262;28;20566;-83
2022/07/12 08:56:51;;;;;;;2.67;1.70;;;25.00;99.90;;;;;;5039812;28;20492;-83
2022/07/12 08:59:20;;;;;;;2.27;1.30;;;25.40;99.90;;;;;;5039172;28;20499;-83
2022/07/12 09:01:50;;;;;;;3.30;1.70;;;25.70;99.90;;;;;;5039813;28;20467;-82
2022/07/12 09:04:19;;;;;;;2.87;1.93;;;25.80;99.90;;;;;;5037588;28;21122;-83
2022/07/12 09:06:46;;;;;;;3.20;1.60;;;25.90;99.90;;;;;;5038950;28;20539;-83
2022/07/12 09:09:25;;;;;;;2.93;1.33;;;26.10;99.90;;;;;;5039369;28;20963;-83
2022/07/12 09:11:52;;;;;;;3.83;1.97;;;26.30;99.90;;;;;;5039174;28;20445;-83
2022/07/12 09:14:20;;;;;;;3.67;1.87;;;26.60;99.90;;;;;;5039144;28;20655;-83
2022/07/12 09:17:01;;;;;;;2.63;1.40;;;26.40;99.90;;;;;;5039874;28;20449;-83
2022/07/12 09:19:29;;;;;;;4.30;1.33;;;26.50;99.90;;;;;;5053772;28;20528;-82
2022/07/12 09:21:56;;;;;;;3.30;1.53;;;26.60;99.90;;;;;;5045975;28;20472;-83
2022/07/12 09:24:25;;;;;;;4.17;1.23;;;26.90;99.90;;;;;;5038439;28;20477;-83
2022/07/12 09:26:57;;;;;;;2.10;1.30;;;27.20;99.90;;;;;;5039088;28;20835;-82
2022/07/12 09:29:26;;;;;;;2.90;1.40;;;27.30;99.90;;;;;;5039686;28;20437;-83
2022/07/12 09:37:25;;;;;;;2.77;1.20;;;27.90;99.90;;;;;;5026001;28;20837;-82
2022/07/12 09:39:53;;;;;;;2.13;1.00;;;27.60;99.90;;;;;;5019167;28;21048;-82
2022/07/12 09:42:20;;;;;;;2.80;1.27;;;27.70;99.90;;;;;;5019159;28;20658;-82
2022/07/12 09:44:47;;;;;;;2.20;1.23;;;27.80;99.90;;;;;;5027604;28;20477;-82
2022/07/12 09:47:15;;;;;;;2.30;1.10;;;28.00;99.90;;;;;;5036944;28;20467;-82
2022/07/12 09:49:44;;;;;;;2.70;1.13;;;28.00;99.90;;;;;;5034657;28;20460;-83
2022/07/12 09:52:13;;;;;;;2.53;1.23;;;28.10;99.90;;;;;;5041334;28;21040;-82
2022/07/12 09:54:42;;;;;;;3.03;1.20;;;28.10;99.90;;;;;;5037133;28;20555;-82
2022/07/12 09:57:19;;;;;;;3.73;1.20;;;28.30;99.90;;;;;;5033714;28;20449;-83
2022/07/12 09:59:47;;;;;;;3.13;1.27;;;28.40;99.90;;;;;;5045478;28;20483;-83
2022/07/12 10:02:15;;;;;;;2.43;1.10;;;28.60;99.90;;;;;;5053422;28;20471;-83
2022/07/12 10:04:44;;;;;;;3.93;1.10;;;28.60;99.90;;;;;;5040696;28;20480;-83
2022/07/12 10:07:13;;;;;;;3.20;1.40;;;28.60;99.90;;;;;;5042793;28;20468;-83
2022/07/12 10:09:42;;;;;;;2.37;0.90;;;28.90;99.90;;;;;;5044425;28;20536;-82
2022/07/12 10:12:10;;;;;;;2.40;1.13;;;29.10;99.90;;;;;;5042964;28;20495;-83
2022/07/12 10:14:38;;;;;;;2.50;1.20;;;29.20;99.90;;;;;;5044197;28;20540;-82
2022/07/12 10:17:09;;;;;;;2.43;1.10;;;29.20;99.90;;;;;;5039212;28;20508;-82
2022/07/12 10:19:36;;;;;;;2.57;1.47;;;29.30;99.90;;;;;;5044640;28;20579;-82
2022/07/12 10:22:06;;;;;;;2.40;1.10;;;29.50;99.90;;;;;;5037302;28;20508;-82
2022/07/12 10:24:51;;;;;;;2.20;1.20;;;29.70;99.90;;;;;;5035536;28;21144;-82
2022/07/12 10:27:32;;;;;;;2.40;1.30;;;29.90;99.90;;;;;;5032747;28;20444;-83
2022/07/12 10:30:22;;;;;;;2.97;1.53;;;30.00;99.90;;;;;;5044880;28;20448;-81
2022/07/12 10:32:52;;;;;;;3.70;0.90;;;30.20;99.90;;;;;;5037107;28;20440;-81
2022/07/12 10:35:21;;;;;;;4.70;1.80;;;30.40;99.90;;;;;;5037724;28;20468;-82
2022/07/12 10:38:21;;;;;;;2.40;1.00;;;30.40;99.90;;;;;;5037011;28;20441;-82
2022/07/12 10:40:50;;;;;;;2.30;1.07;;;30.40;99.90;;;;;;5037348;28;20515;-81
2022/07/12 10:46:23;;;;;;;2.27;1.13;;;30.60;99.90;;;;;;5018224;28;20522;-82
2022/07/12 10:48:50;;;;;;;2.10;1.03;;;31.00;99.90;;;;;;5032593;28;20460;-82
2022/07/12 10:51:20;;;;;;;3.60;0.97;;;31.10;99.90;;;;;;5037828;28;20516;-81
2022/07/12 10:53:50;;;;;;;2.20;1.30;;;31.40;99.90;;;;;;5037022;28;20452;-81
2022/07/12 10:56:19;;;;;;;2.40;1.00;;;31.70;99.90;;;;;;5038940;28;21052;-83
2022/07/12 10:58:49;;;;;;;2.23;0.83;;;31.80;99.90;;;;;;5039020;28;20452;-83
2022/07/12 11:01:18;;;;;;;2.40;1.10;;;32.10;99.90;;;;;;5038314;28;20488;-82
2022/07/12 11:03:48;;;;;;;3.07;0.90;;;32.00;99.90;;;;;;5043108;28;20472;-83
2022/07/12 11:06:17;;;;;;;2.53;1.00;;;32.20;99.90;;;;;;5050803;28;20992;-82
2022/07/12 11:08:57;;;;;;;2.60;0.90;;;32.40;99.90;;;;;;5057247;28;20460;-83
2022/07/12 11:11:25;;;;;;;2.63;1.00;;;32.50;99.90;;;;;;5050745;28;20507;-83
2022/07/12 11:13:54;;;;;;;2.53;1.03;;;32.50;99.90;;;;;;5044384;28;20948;-82
2022/07/12 11:16:22;;;;;;;2.57;1.27;;;31.90;99.90;;;;;;5041897;28;20508;-80
2022/07/12 11:18:49;;;;;;;2.60;1.10;;;31.90;99.90;;;;;;5040561;28;20549;-83
2022/07/12 11:21:21;;;;;;;2.13;1.07;;;32.10;99.90;;;;;;5046679;28;20556;-81
2022/07/12 11:23:48;;;;;;;3.07;0.93;;;32.30;99.90;;;;;;5054560;28;20449;-80
2022/07/12 11:26:16;;;;;;;1.80;0.80;;;32.40;99.90;;;;;;5045386;28;20466;-82
2022/07/12 11:28:45;;;;;;;3.13;1.10;;;32.50;99.90;;;;;;5041115;28;20485;-82
2022/07/12 11:31:13;;;;;;;2.67;1.30;;;32.40;99.50;;;;;;5047822;28;20552;-81
2022/07/12 11:33:41;;;;;;;3.30;1.20;;;32.60;99.90;;;;;;5039624;28;20453;-81
2022/07/12 11:36:15;;;;;;;2.93;1.00;;;32.40;99.90;;;;;;5039263;28;20556;-81
2022/07/12 11:38:44;;;;;;;2.87;1.00;;;32.20;99.90;;;;;;5043809;28;21019;-81
2022/07/12 11:41:13;;;;;;;2.90;1.07;;;31.60;99.80;;;;;;5045574;28;20531;-82
2022/07/12 11:43:42;;;;;;;2.37;1.10;;;32.00;99.90;;;;;;5038855;28;20993;-82
2022/07/12 11:46:09;;;;;;;2.87;1.03;;;32.40;99.90;;;;;;5037978;28;20520;-82
2022/07/12 11:48:37;;;;;;;2.40;1.17;;;32.90;99.90;;;;;;5036288;28;20507;-81
2022/07/12 11:51:07;;;;;;;2.10;0.93;;;33.30;99.90;;;;;;5032101;28;20537;-82
2022/07/12 11:53:35;;;;;;;2.30;1.10;;;33.50;97.90;;;;;;5033494;28;20485;-82
2022/07/12 11:56:03;;;;;;;3.30;1.00;;;33.70;99.90;;;;;;5040028;28;20465;-83
2022/07/12 11:58:32;;;;;;;3.70;1.00;;;33.70;95.20;;;;;;5041187;28;20952;-83
2022/07/12 12:01:00;;;;;;;2.10;1.10;;;33.70;95.30;;;;;;5040736;28;20489;-83
2022/07/12 12:03:27;;;;;;;3.70;1.10;;;33.50;96.80;;;;;;5040498;28;20528;-83
2022/07/12 12:05:56;;;;;;;4.43;1.27;;;33.80;94.80;;;;;;5035625;28;20564;-83
2022/07/12 12:08:23;;;;;;;2.40;0.90;;;33.90;92.60;;;;;;5040513;28;20491;-83
2022/07/12 12:10:55;;;;;;;2.50;1.10;;;33.80;95.70;;;;;;5044518;28;20455;-82
2022/07/12 12:13:23;;;;;;;2.10;1.10;;;33.80;93.40;;;;;;5035400;28;20467;-81
2022/07/12 12:15:52;;;;;;;2.90;1.23;;;34.10;94.30;;;;;;5043063;28;20908;-83
2022/07/12 12:18:29;;;;;;;2.27;1.00;;;34.40;91.70;;;;;;5032452;28;20460;-84
2022/07/12 12:20:59;;;;;;;2.77;1.07;;;34.50;92.50;;;;;;5039381;28;20515;-83
2022/07/12 12:23:26;;;;;;;3.00;1.10;;;34.60;92.40;;;;;;5035068;28;20450;-82
2022/07/12 12:25:52;;;;;;;2.10;1.00;;;35.00;89.00;;;;;;5038193;28;20981;-84
2022/07/12 12:28:19;;;;;;;3.20;1.10;;;35.20;94.90;;;;;;5040105;28;20457;-83
2022/07/12 12:30:51;;;;;;;2.37;1.03;;;35.50;90.70;;;;;;5042336;28;20495;-83
2022/07/12 12:33:37;;;;;;;2.53;1.00;;;35.70;92.90;;;;;;5031495;28;20484;-83
2022/07/12 12:36:45;;;;;;;1.90;0.90;;;35.80;90.90;;;;;;5031705;28;20898;-83
2022/07/12 12:39:12;;;;;;;2.50;1.20;;;35.60;87.20;;;;;;5020642;28;20468;-82
2022/07/12 12:41:41;;;;;;;3.07;1.00;;;35.10;82.30;;;;;;5038232;28;20558;-83
2022/07/12 12:44:12;;;;;;;2.33;0.90;;;34.30;82.40;;;;;;5031967;28;20483;-83
2022/07/12 12:46:47;;;;;;;2.73;1.23;;;34.00;88.50;;;;;;5039149;28;21028;-81
2022/07/12 12:49:15;;;;;;;4.80;1.10;;;33.50;81.20;;;;;;5040142;28;20956;-83
2022/07/12 12:51:55;;;;;;;3.50;0.93;;;33.70;83.80;;;;;;5041836;28;20456;-83
2022/07/12 12:54:33;;;;;;;3.87;1.00;;;33.70;84.00;;;;;;5035290;28;20499;-82
2022/07/12 12:57:00;;;;;;;2.43;1.13;;;34.00;80.90;;;;;;5042439;28;20456;-83
2022/07/12 12:59:27;;;;;;;3.13;0.87;;;34.40;90.60;;;;;;5040012;28;20448;-82
2022/07/12 13:01:56;;;;;;;1.90;0.80;;;34.70;91.50;;;;;;5041485;28;20574;-81
2022/07/12 13:04:28;;;;;;;2.80;0.87;;;35.10;91.30;;;;;;5045516;28;20519;-81